sensor_id;sensor_type;location;lat;lon;timestamp;P1;durP1;ratioP1;P2;durP2;ratioP2
54917;SDS011;40818;50.562;7.454;2023-07-16T00:00:22;2.42;;;0.20;;
54917;SDS011;40818;50.562;7.454;2023-07-16T00:10:28;1.98;;;0.20;;
54917;SDS011;40818;50.562;7.454;2023-07-16T00:20:34;1.35;;;0.20;;
54917;SDS011;40818;50.562;7.454;2023-07-16T00:30:37;1.50;;;0.20;;
54917;SDS011;40818;50.562;7.454;2023-07-16T00:40:44;1.52;;;0.20;;
54917;SDS011;40818;50.562;7.454;2023-07-16T00:50:49;1.27;;;0.20;;
54917;SDS011;40818;50.562;7.454;2023-07-16T01:00:57;2.30;;;0.20;;
54917;SDS011;40818;50.562;7.454;2023-07-16T01:11:02;5.22;;;0.17;;
54917;SDS011;40818;50.562;7.454;2023-07-16T01:21:09;1.40;;;0.20;;
54917;SDS011;40818;50.562;7.454;2023-07-16T01:31:16;2.17;;;0.20;;
54917;SDS011;40818;50.562;7.454;2023-07-16T01:41:21;1.05;;;0.30;;
54917;SDS011;40818;50.562;7.454;2023-07-16T01:51:27;1.38;;;0.20;;
54917;SDS011;40818;50.562;7.454;2023-07-16T02:01:31;0.85;;;0.25;;
54917;SDS011;40818;50.562;7.454;2023-07-16T02:11:37;2.45;;;0.30;;
54917;SDS011;40818;50.562;7.454;2023-07-16T02:21:40;2.20;;;0.20;;
54917;SDS011;40818;50.562;7.454;2023-07-16T02:31:46;3.17;;;0.30;;
54917;SDS011;40818;50.562;7.454;2023-07-16T02:41:50;6.07;;;0.20;;
54917;SDS011;40818;50.562;7.454;2023-07-16T02:51:56;3.50;;;0.30;;
54917;SDS011;40818;50.562;7.454;2023-07-16T03:01:59;2.25;;;0.20;;
54917;SDS011;40818;50.562;7.454;2023-07-16T03:12:06;2.42;;;0.30;;
54917;SDS011;40818;50.562;7.454;2023-07-16T03:22:10;1.85;;;0.20;;
54917;SDS011;40818;50.562;7.454;2023-07-16T03:32:17;3.42;;;0.20;;
54917;SDS011;40818;50.562;7.454;2023-07-16T03:42:21;3.72;;;0.38;;
54917;SDS011;40818;50.562;7.454;2023-07-16T03:52:27;3.92;;;0.30;;
54917;SDS011;40818;50.562;7.454;2023-07-16T04:02:30;2.30;;;0.30;;
54917;SDS011;40818;50.562;7.454;2023-07-16T04:12:37;5.65;;;0.20;;
54917;SDS011;40818;50.562;7.454;2023-07-16T04:22:40;3.78;;;0.30;;
54917;SDS011;40818;50.562;7.454;2023-07-16T04:32:46;3.95;;;0.30;;
54917;SDS011;40818;50.562;7.454;2023-07-16T04:42:50;6.10;;;0.28;;
54917;SDS011;40818;50.562;7.454;2023-07-16T04:52:56;2.83;;;0.25;;
54917;SDS011;40818;50.562;7.454;2023-07-16T05:02:59;2.15;;;0.40;;
54917;SDS011;40818;50.562;7.454;2023-07-16T05:13:05;2.00;;;0.40;;
54917;SDS011;40818;50.562;7.454;2023-07-16T05:23:09;2.45;;;0.30;;
54917;SDS011;40818;50.562;7.454;2023-07-16T05:33:15;5.30;;;0.40;;
54917;SDS011;40818;50.562;7.454;2023-07-16T05:43:19;5.45;;;0.60;;
54917;SDS011;40818;50.562;7.454;2023-07-16T05:53:25;4.97;;;0.40;;
54917;SDS011;40818;50.562;7.454;2023-07-16T06:03:28;5.28;;;0.88;;
54917;SDS011;40818;50.562;7.454;2023-07-16T06:13:34;7.05;;;0.50;;
54917;SDS011;40818;50.562;7.454;2023-07-16T06:23:37;3.70;;;0.40;;
54917;SDS011;40818;50.562;7.454;2023-07-16T06:33:43;3.15;;;0.40;;
54917;SDS011;40818;50.562;7.454;2023-07-16T06:43:49;3.28;;;0.52;;
54917;SDS011;40818;50.562;7.454;2023-07-16T06:53:55;4.05;;;0.50;;
54917;SDS011;40818;50.562;7.454;2023-07-16T07:03:59;2.58;;;0.52;;
54917;SDS011;40818;50.562;7.454;2023-07-16T07:14:05;4.57;;;0.60;;
54917;SDS011;40818;50.562;7.454;2023-07-16T07:24:08;3.00;;;0.63;;
54917;SDS011;40818;50.562;7.454;2023-07-16T07:34:14;3.67;;;0.70;;
54917;SDS011;40818;50.562;7.454;2023-07-16T07:44:18;2.70;;;0.50;;
54917;SDS011;40818;50.562;7.454;2023-07-16T07:54:24;2.67;;;0.60;;
54917;SDS011;40818;50.562;7.454;2023-07-16T08:04:27;3.33;;;0.52;;
54917;SDS011;40818;50.562;7.454;2023-07-16T08:14:34;4.28;;;0.52;;
54917;SDS011;40818;50.562;7.454;2023-07-16T08:24:38;2.10;;;0.50;;
54917;SDS011;40818;50.562;7.454;2023-07-16T08:34:44;4.35;;;0.60;;
54917;SDS011;40818;50.562;7.454;2023-07-16T08:44:48;2.42;;;0.60;;
54917;SDS011;40818;50.562;7.454;2023-07-16T08:54:55;3.30;;;0.73;;
54917;SDS011;40818;50.562;7.454;2023-07-16T09:04:59;3.85;;;0.68;;
54917;SDS011;40818;50.562;7.454;2023-07-16T09:15:06;2.92;;;0.63;;
54917;SDS011;40818;50.562;7.454;2023-07-16T09:25:10;2.42;;;0.60;;
54917;SDS011;40818;50.562;7.454;2023-07-16T09:35:17;3.95;;;0.73;;
54917;SDS011;40818;50.562;7.454;2023-07-16T09:45:20;2.63;;;0.80;;
54917;SDS011;40818;50.562;7.454;2023-07-16T09:55:26;3.17;;;0.70;;
54917;SDS011;40818;50.562;7.454;2023-07-16T10:05:35;3.92;;;0.70;;
54917;SDS011;40818;50.562;7.454;2023-07-16T10:15:52;2.65;;;0.70;;
54917;SDS011;40818;50.562;7.454;2023-07-16T10:25:58;3.60;;;0.70;;
54917;SDS011;40818;50.562;7.454;2023-07-16T10:36:08;2.83;;;0.65;;
54917;SDS011;40818;50.562;7.454;2023-07-16T10:46:12;2.55;;;0.60;;
54917;SDS011;40818;50.562;7.454;2023-07-16T10:56:18;4.38;;;0.70;;
54917;SDS011;40818;50.562;7.454;2023-07-16T11:06:23;4.47;;;0.70;;
54917;SDS011;40818;50.562;7.454;2023-07-16T11:16:29;2.35;;;0.60;;
54917;SDS011;40818;50.562;7.454;2023-07-16T11:26:36;7.03;;;0.60;;
54917;SDS011;40818;50.562;7.454;2023-07-16T11:36:42;3.25;;;0.60;;
54917;SDS011;40818;50.562;7.454;2023-07-16T11:46:46;2.40;;;0.70;;
54917;SDS011;40818;50.562;7.454;2023-07-16T11:56:52;5.13;;;0.60;;
54917;SDS011;40818;50.562;7.454;2023-07-16T12:06:55;3.92;;;0.50;;
54917;SDS011;40818;50.562;7.454;2023-07-16T12:17:01;3.78;;;0.50;;
54917;SDS011;40818;50.562;7.454;2023-07-16T12:27:05;1.45;;;0.57;;
54917;SDS011;40818;50.562;7.454;2023-07-16T12:37:12;1.95;;;0.55;;
54917;SDS011;40818;50.562;7.454;2023-07-16T12:47:17;3.88;;;0.60;;
54917;SDS011;40818;50.562;7.454;2023-07-16T12:57:23;2.78;;;0.50;;
54917;SDS011;40818;50.562;7.454;2023-07-16T13:07:26;1.85;;;0.57;;
54917;SDS011;40818;50.562;7.454;2023-07-16T13:17:32;2.28;;;0.60;;
54917;SDS011;40818;50.562;7.454;2023-07-16T13:27:37;2.85;;;0.60;;
54917;SDS011;40818;50.562;7.454;2023-07-16T13:37:43;4.45;;;0.70;;
54917;SDS011;40818;50.562;7.454;2023-07-16T13:47:47;2.40;;;0.70;;
54917;SDS011;40818;50.562;7.454;2023-07-16T13:57:54;3.78;;;0.65;;
54917;SDS011;40818;50.562;7.454;2023-07-16T14:07:58;3.83;;;0.60;;
54917;SDS011;40818;50.562;7.454;2023-07-16T14:18:04;2.78;;;0.60;;
54917;SDS011;40818;50.562;7.454;2023-07-16T14:28:07;3.35;;;0.60;;
54917;SDS011;40818;50.562;7.454;2023-07-16T14:38:13;2.05;;;0.50;;
54917;SDS011;40818;50.562;7.454;2023-07-16T14:48:17;1.92;;;0.50;;
54917;SDS011;40818;50.562;7.454;2023-07-16T14:58:25;1.63;;;0.50;;
54917;SDS011;40818;50.562;7.454;2023-07-16T15:08:29;2.50;;;0.45;;
54917;SDS011;40818;50.562;7.454;2023-07-16T15:18:35;3.45;;;0.47;;
54917;SDS011;40818;50.562;7.454;2023-07-16T15:28:39;2.42;;;0.50;;
54917;SDS011;40818;50.562;7.454;2023-07-16T15:38:46;2.20;;;0.40;;
54917;SDS011;40818;50.562;7.454;2023-07-16T15:48:49;2.08;;;0.50;;
54917;SDS011;40818;50.562;7.454;2023-07-16T15:58:55;2.78;;;0.47;;
54917;SDS011;40818;50.562;7.454;2023-07-16T16:08:59;5.53;;;0.50;;
54917;SDS011;40818;50.562;7.454;2023-07-16T16:19:05;4.07;;;0.60;;
54917;SDS011;40818;50.562;7.454;2023-07-16T16:29:09;3.80;;;0.60;;
54917;SDS011;40818;50.562;7.454;2023-07-16T16:39:15;4.30;;;0.70;;
54917;SDS011;40818;50.562;7.454;2023-07-16T16:49:19;9.00;;;0.50;;
54917;SDS011;40818;50.562;7.454;2023-07-16T16:59:25;5.13;;;0.70;;
54917;SDS011;40818;50.562;7.454;2023-07-16T17:09:33;5.17;;;0.60;;
54917;SDS011;40818;50.562;7.454;2023-07-16T17:19:40;2.45;;;0.63;;
54917;SDS011;40818;50.562;7.454;2023-07-16T17:29:44;4.82;;;0.70;;
54917;SDS011;40818;50.562;7.454;2023-07-16T17:39:51;3.83;;;0.70;;
54917;SDS011;40818;50.562;7.454;2023-07-16T17:49:54;3.42;;;0.60;;
54917;SDS011;40818;50.562;7.454;2023-07-16T18:00:00;5.28;;;0.73;;
54917;SDS011;40818;50.562;7.454;2023-07-16T18:10:09;4.45;;;0.70;;
54917;SDS011;40818;50.562;7.454;2023-07-16T18:20:16;3.17;;;0.70;;
54917;SDS011;40818;50.562;7.454;2023-07-16T18:30:19;2.97;;;0.80;;
54917;SDS011;40818;50.562;7.454;2023-07-16T18:40:26;6.05;;;0.60;;
54917;SDS011;40818;50.562;7.454;2023-07-16T18:50:29;2.20;;;0.57;;
54917;SDS011;40818;50.562;7.454;2023-07-16T19:00:35;4.22;;;0.70;;
54917;SDS011;40818;50.562;7.454;2023-07-16T19:10:39;3.13;;;0.70;;
54917;SDS011;40818;50.562;7.454;2023-07-16T19:20:45;2.40;;;0.70;;
54917;SDS011;40818;50.562;7.454;2023-07-16T19:30:48;5.03;;;0.70;;
54917;SDS011;40818;50.562;7.454;2023-07-16T19:40:54;3.67;;;0.70;;
54917;SDS011;40818;50.562;7.454;2023-07-16T19:50:58;4.40;;;0.70;;
54917;SDS011;40818;50.562;7.454;2023-07-16T20:01:07;2.53;;;0.68;;
54917;SDS011;40818;50.562;7.454;2023-07-16T20:11:10;4.13;;;0.60;;
54917;SDS011;40818;50.562;7.454;2023-07-16T20:21:16;5.55;;;0.60;;
54917;SDS011;40818;50.562;7.454;2023-07-16T20:31:20;3.75;;;0.60;;
54917;SDS011;40818;50.562;7.454;2023-07-16T20:41:26;2.10;;;0.60;;
54917;SDS011;40818;50.562;7.454;2023-07-16T20:51:30;2.25;;;0.50;;
54917;SDS011;40818;50.562;7.454;2023-07-16T21:01:36;2.75;;;0.50;;
54917;SDS011;40818;50.562;7.454;2023-07-16T21:11:39;3.35;;;0.50;;
54917;SDS011;40818;50.562;7.454;2023-07-16T21:21:45;3.75;;;0.60;;
54917;SDS011;40818;50.562;7.454;2023-07-16T21:31:49;2.45;;;0.50;;
54917;SDS011;40818;50.562;7.454;2023-07-16T21:41:55;2.75;;;0.40;;
54917;SDS011;40818;50.562;7.454;2023-07-16T21:51:58;2.72;;;0.50;;
54917;SDS011;40818;50.562;7.454;2023-07-16T22:02:06;3.22;;;0.60;;
54917;SDS011;40818;50.562;7.454;2023-07-16T22:12:10;3.15;;;0.50;;
54917;SDS011;40818;50.562;7.454;2023-07-16T22:22:16;6.03;;;0.50;;
54917;SDS011;40818;50.562;7.454;2023-07-16T22:32:19;3.13;;;0.60;;
54917;SDS011;40818;50.562;7.454;2023-07-16T22:42:25;3.78;;;0.50;;
54917;SDS011;40818;50.562;7.454;2023-07-16T22:52:29;3.30;;;0.68;;
54917;SDS011;40818;50.562;7.454;2023-07-16T23:02:34;3.45;;;0.70;;
54917;SDS011;40818;50.562;7.454;2023-07-16T23:12:38;2.83;;;0.50;;
54917;SDS011;40818;50.562;7.454;2023-07-16T23:22:44;2.35;;;0.60;;
54917;SDS011;40818;50.562;7.454;2023-07-16T23:32:47;11.32;;;0.70;;
54917;SDS011;40818;50.562;7.454;2023-07-16T23:42:53;3.50;;;0.70;;
54917;SDS011;40818;50.562;7.454;2023-07-16T23:52:57;3.22;;;0.60;;
